createdAt,value
2018-09-06T00:00:33.229Z,18.00
2018-09-06T00:01:38.131Z,18.00
2018-09-06T00:02:41.495Z,18.00
2018-09-06T00:03:44.804Z,17.90
2018-09-06T00:04:48.146Z,17.90
2018-09-06T00:05:51.448Z,17.90
2018-09-06T00:06:54.780Z,17.90
2018-09-06T00:07:58.131Z,17.90
2018-09-06T00:09:01.535Z,17.90
2018-09-06T00:10:04.872Z,17.80
2018-09-06T00:11:08.242Z,17.80
2018-09-06T00:12:11.584Z,17.80
2018-09-06T00:13:14.898Z,17.80
2018-09-06T00:14:18.203Z,17.80
2018-09-06T00:15:21.509Z,17.70
2018-09-06T00:16:24.913Z,17.70
2018-09-06T00:17:28.233Z,17.70
2018-09-06T00:18:31.543Z,17.70
2018-09-06T00:19:34.886Z,17.70
2018-09-06T00:20:38.251Z,17.60
2018-09-06T00:21:41.599Z,17.60
2018-09-06T00:22:44.923Z,17.60
2018-09-06T00:23:48.227Z,17.60
2018-09-06T00:24:51.575Z,17.60
2018-09-06T00:25:54.887Z,17.50
2018-09-06T00:26:58.211Z,17.50
2018-09-06T00:28:01.623Z,17.50
2018-09-06T00:29:04.968Z,17.60
2018-09-06T00:30:08.295Z,17.50
2018-09-06T00:31:11.653Z,17.50
2018-09-06T00:32:14.990Z,17.50
2018-09-06T00:33:18.303Z,17.40
2018-09-06T00:34:21.611Z,17.50
2018-09-06T00:35:24.915Z,17.50
2018-09-06T00:36:28.215Z,17.50
2018-09-06T00:37:31.559Z,17.40
2018-09-06T00:38:34.864Z,17.40
2018-09-06T00:39:38.208Z,17.40
2018-09-06T00:40:41.544Z,17.40
2018-09-06T00:41:44.843Z,17.30
2018-09-06T00:42:48.184Z,17.40
2018-09-06T00:43:51.538Z,17.30
2018-09-06T00:44:54.880Z,17.30
2018-09-06T00:45:58.231Z,17.20
2018-09-06T00:47:01.539Z,17.20
2018-09-06T00:48:04.873Z,17.10
2018-09-06T00:49:08.181Z,17.20
2018-09-06T00:50:17.002Z,17.20
2018-09-06T00:51:20.350Z,17.20
2018-09-06T00:52:24.027Z,17.20
2018-09-06T00:53:27.356Z,17.10
2018-09-06T00:54:30.649Z,17.20
2018-09-06T00:55:34.330Z,17.20
2018-09-06T00:56:37.722Z,17.20
2018-09-06T00:57:41.044Z,17.20
2018-09-06T00:58:44.362Z,17.20
2018-09-06T00:59:47.697Z,17.20
2018-09-06T01:00:50.995Z,17.20
2018-09-06T01:01:55.260Z,17.20
2018-09-06T01:02:58.578Z,17.20
2018-09-06T01:04:01.922Z,17.10
2018-09-06T01:05:05.278Z,17.10
2018-09-06T01:06:15.254Z,17.10
2018-09-06T01:07:18.601Z,17.10
2018-09-06T01:08:21.911Z,17.00
2018-09-06T01:09:25.320Z,17.10
2018-09-06T01:10:28.861Z,17.10
2018-09-06T01:11:32.207Z,17.00
2018-09-06T01:12:35.534Z,17.00
2018-09-06T01:13:38.882Z,17.00
2018-09-06T01:14:42.603Z,17.00
2018-09-06T01:15:45.966Z,17.00
2018-09-06T01:16:49.287Z,17.00
2018-09-06T01:17:52.627Z,16.90
2018-09-06T01:18:55.987Z,16.80
2018-09-06T01:19:59.338Z,16.90
2018-09-06T01:21:02.684Z,16.80
2018-09-06T01:22:06.038Z,16.80
2018-09-06T01:23:09.377Z,16.70
2018-09-06T01:24:12.686Z,16.70
2018-09-06T01:25:16.054Z,16.70
2018-09-06T01:26:19.359Z,16.70
2018-09-06T01:27:22.702Z,16.70
2018-09-06T01:28:26.040Z,16.70
2018-09-06T01:29:29.414Z,16.70
2018-09-06T01:30:32.738Z,16.70
2018-09-06T01:31:36.054Z,16.70
2018-09-06T01:32:39.354Z,16.70
2018-09-06T01:33:42.691Z,16.70
2018-09-06T01:34:46.051Z,16.60
2018-09-06T01:35:54.667Z,16.70
2018-09-06T01:36:58.008Z,16.70
2018-09-06T01:38:01.332Z,16.70
2018-09-06T01:39:06.523Z,16.70
2018-09-06T01:40:09.858Z,16.60
2018-09-06T01:41:13.169Z,16.60
2018-09-06T01:42:16.522Z,16.60
2018-09-06T01:43:19.829Z,16.60
2018-09-06T01:44:23.137Z,16.60
2018-09-06T01:45:26.462Z,16.60
2018-09-06T01:46:29.774Z,16.60
2018-09-06T01:47:33.174Z,16.60
2018-09-06T01:48:36.483Z,16.60
2018-09-06T01:49:39.798Z,16.70
2018-09-06T01:50:43.138Z,16.60
2018-09-06T01:51:46.450Z,16.70
2018-09-06T01:52:49.789Z,16.70
2018-09-06T01:53:53.102Z,16.60
2018-09-06T01:54:56.443Z,16.60
2018-09-06T01:55:59.755Z,16.60
2018-09-06T01:57:03.091Z,16.60
2018-09-06T01:58:06.451Z,16.60
2018-09-06T01:59:10.796Z,16.60
2018-09-06T02:00:14.126Z,16.70
2018-09-06T02:01:17.422Z,16.70
2018-09-06T02:02:20.727Z,16.70
2018-09-06T02:03:24.066Z,16.70
2018-09-06T02:04:27.355Z,16.70
2018-09-06T02:05:31.187Z,16.60
2018-09-06T02:06:34.527Z,16.70
2018-09-06T02:07:37.858Z,16.70
2018-09-06T02:08:41.290Z,16.70
2018-09-06T02:09:44.674Z,16.70
2018-09-06T02:10:48.058Z,16.70
2018-09-06T02:11:51.402Z,16.70
2018-09-06T02:12:55.011Z,16.70
2018-09-06T02:13:58.327Z,16.70
2018-09-06T02:15:01.646Z,16.60
2018-09-06T02:16:05.014Z,16.60
2018-09-06T02:17:08.402Z,16.60
2018-09-06T02:18:11.729Z,16.70
2018-09-06T02:19:15.070Z,16.60
2018-09-06T02:20:18.379Z,16.60
2018-09-06T02:21:21.683Z,16.70
2018-09-06T02:22:24.983Z,16.70
2018-09-06T02:23:28.323Z,16.70
2018-09-06T02:24:31.810Z,16.70
2018-09-06T02:25:35.125Z,16.70
2018-09-06T02:26:38.431Z,16.70
2018-09-06T02:27:41.732Z,16.60
2018-09-06T02:28:45.051Z,16.50
2018-09-06T02:29:48.397Z,16.60
2018-09-06T02:30:51.706Z,16.60
2018-09-06T02:31:55.059Z,16.50
2018-09-06T02:32:58.384Z,16.50
2018-09-06T02:34:01.703Z,16.40
2018-09-06T02:35:05.099Z,16.40
2018-09-06T02:36:08.440Z,16.40
2018-09-06T02:37:11.759Z,16.50
2018-09-06T02:38:15.124Z,16.50
2018-09-06T02:39:18.434Z,16.40
2018-09-06T02:40:27.017Z,16.30
2018-09-06T02:41:30.328Z,16.40
2018-09-06T02:42:33.626Z,16.30
2018-09-06T02:43:36.939Z,16.20
2018-09-06T02:44:40.306Z,16.30
2018-09-06T02:45:44.654Z,16.30
2018-09-06T02:46:47.974Z,16.20
2018-09-06T02:47:54.595Z,16.30
2018-09-06T02:48:57.917Z,16.20
2018-09-06T02:52:13.059Z,16.20
2018-09-06T02:53:16.497Z,16.20
2018-09-06T02:54:19.806Z,16.20
2018-09-06T02:55:23.722Z,16.20
2018-09-06T02:56:27.035Z,16.10
2018-09-06T02:57:30.366Z,16.20
2018-09-06T02:58:33.702Z,16.10
2018-09-06T02:59:37.025Z,16.10
2018-09-06T03:00:40.375Z,16.10
2018-09-06T03:01:43.688Z,16.10
2018-09-06T03:02:47.047Z,16.10
2018-09-06T03:03:50.678Z,16.10
2018-09-06T03:04:53.999Z,16.10
2018-09-06T03:05:57.342Z,16.10
2018-09-06T03:07:00.642Z,16.10
2018-09-06T03:08:03.981Z,16.10
2018-09-06T03:09:08.058Z,16.10
2018-09-06T03:10:11.413Z,16.10
2018-09-06T03:11:17.757Z,16.10
2018-09-06T03:12:21.101Z,16.10
2018-09-06T03:13:24.439Z,16.10
2018-09-06T03:14:27.783Z,16.00
2018-09-06T03:15:37.427Z,16.10
2018-09-06T03:16:40.759Z,16.00
2018-09-06T03:17:44.079Z,15.90
2018-09-06T03:18:47.422Z,16.00
2018-09-06T03:19:50.727Z,16.00
2018-09-06T03:20:54.059Z,16.00
2018-09-06T03:21:57.367Z,16.00
2018-09-06T03:23:01.011Z,16.00
2018-09-06T03:24:04.338Z,15.90
2018-09-06T03:25:07.851Z,15.90
2018-09-06T03:26:16.236Z,15.80
2018-09-06T03:27:19.546Z,15.80
2018-09-06T03:28:22.899Z,15.80
2018-09-06T03:29:26.211Z,15.80
2018-09-06T03:30:29.519Z,15.80
2018-09-06T03:31:32.843Z,15.80
2018-09-06T03:32:36.196Z,15.80
2018-09-06T03:33:39.531Z,15.80
2018-09-06T03:34:42.838Z,15.70
2018-09-06T03:35:46.219Z,15.70
2018-09-06T03:36:49.490Z,15.70
2018-09-06T03:37:52.851Z,15.70
2018-09-06T03:38:56.159Z,15.70
2018-09-06T03:39:59.502Z,15.70
2018-09-06T03:41:02.844Z,15.60
2018-09-06T03:42:06.183Z,15.60
2018-09-06T03:43:09.499Z,15.60
2018-09-06T03:44:12.814Z,15.60
2018-09-06T03:45:16.184Z,15.60
2018-09-06T03:46:19.506Z,15.60
2018-09-06T03:47:22.806Z,15.70
2018-09-06T03:48:26.361Z,15.70
2018-09-06T03:49:29.683Z,15.60
2018-09-06T03:50:33.089Z,15.60
2018-09-06T03:51:36.430Z,15.60
2018-09-06T03:52:39.774Z,15.50
2018-09-06T03:53:43.081Z,15.60
2018-09-06T03:54:46.417Z,15.60
2018-09-06T03:55:49.779Z,15.60
2018-09-06T03:56:53.095Z,15.50
2018-09-06T03:57:56.419Z,15.50
2018-09-06T03:58:59.731Z,15.50
2018-09-06T04:00:03.126Z,15.50
2018-09-06T04:01:06.513Z,15.40
2018-09-06T04:02:09.867Z,15.30
2018-09-06T04:03:13.212Z,15.30
2018-09-06T04:04:16.516Z,15.40
2018-09-06T04:05:19.822Z,15.50
2018-09-06T04:06:23.204Z,15.50
2018-09-06T04:07:26.523Z,15.40
2018-09-06T04:08:29.942Z,15.40
2018-09-06T04:09:33.238Z,15.50
2018-09-06T04:10:36.571Z,15.50
2018-09-06T04:11:39.930Z,15.40
2018-09-06T04:12:43.248Z,15.40
2018-09-06T04:13:46.571Z,15.50
2018-09-06T04:14:49.883Z,15.50
2018-09-06T04:15:53.192Z,15.50
2018-09-06T04:16:56.558Z,15.50
2018-09-06T04:17:59.886Z,15.50
2018-09-06T04:19:03.218Z,15.50
2018-09-06T04:20:06.575Z,15.50
2018-09-06T04:21:09.894Z,15.60
2018-09-06T04:22:13.235Z,15.50
2018-09-06T04:23:16.660Z,15.50
2018-09-06T04:24:20.066Z,15.40
2018-09-06T04:25:23.315Z,15.50
2018-09-06T04:26:26.642Z,15.40
2018-09-06T04:27:29.955Z,15.30
2018-09-06T04:28:33.270Z,15.30
2018-09-06T04:29:36.594Z,15.30
2018-09-06T04:30:39.950Z,15.30
2018-09-06T04:31:43.278Z,15.20
2018-09-06T04:32:46.586Z,15.20
2018-09-06T04:33:49.917Z,15.20
2018-09-06T04:34:53.269Z,15.20
2018-09-06T04:35:56.642Z,15.30
2018-09-06T04:36:59.982Z,15.30
2018-09-06T04:38:03.408Z,15.30
2018-09-06T04:39:09.083Z,15.20
2018-09-06T04:40:12.395Z,15.20
2018-09-06T04:41:15.731Z,15.30
2018-09-06T04:42:19.105Z,15.20
2018-09-06T04:43:22.446Z,15.20
2018-09-06T04:44:25.973Z,15.20
2018-09-06T04:45:29.288Z,15.20
2018-09-06T04:46:32.634Z,15.20
2018-09-06T04:47:35.987Z,15.20
2018-09-06T04:48:39.354Z,15.20
2018-09-06T04:49:43.196Z,15.20
2018-09-06T04:50:46.558Z,15.20
2018-09-06T04:51:50.120Z,15.20
2018-09-06T04:52:53.442Z,15.20
2018-09-06T04:53:56.791Z,15.10
2018-09-06T04:55:00.140Z,15.10
2018-09-06T04:56:03.479Z,15.10
2018-09-06T04:57:06.810Z,15.10
2018-09-06T04:58:10.133Z,15.10
2018-09-06T04:59:13.525Z,15.10
2018-09-06T05:00:16.886Z,15.10
2018-09-06T05:01:20.217Z,15.20
2018-09-06T05:02:23.526Z,15.20
2018-09-06T05:03:26.878Z,15.20
2018-09-06T05:04:30.259Z,15.20
2018-09-06T05:05:33.538Z,15.20
2018-09-06T05:06:36.882Z,15.30
2018-09-06T05:07:40.208Z,15.30
2018-09-06T05:08:43.538Z,15.30
2018-09-06T05:09:46.942Z,15.30
2018-09-06T05:10:50.269Z,15.30
2018-09-06T05:11:53.623Z,15.40
2018-09-06T05:12:56.987Z,15.40
2018-09-06T05:14:00.311Z,15.40
2018-09-06T05:15:03.674Z,15.40
2018-09-06T05:16:06.999Z,15.40
2018-09-06T05:17:10.491Z,15.40
2018-09-06T05:18:13.839Z,15.40
2018-09-06T05:19:23.597Z,15.40
2018-09-06T05:20:26.945Z,15.50
2018-09-06T05:21:30.261Z,15.50
2018-09-06T05:22:33.626Z,15.40
2018-09-06T05:23:36.986Z,15.40
2018-09-06T05:24:40.326Z,15.40
2018-09-06T05:25:43.637Z,15.40
2018-09-06T05:26:46.988Z,15.40
2018-09-06T05:27:50.360Z,15.40
2018-09-06T05:28:53.731Z,15.40
2018-09-06T05:29:57.060Z,15.40
2018-09-06T05:31:00.396Z,15.40
2018-09-06T05:32:03.729Z,15.40
2018-09-06T05:33:07.106Z,15.30
2018-09-06T05:34:10.467Z,15.30
2018-09-06T05:35:13.824Z,15.30
2018-09-06T05:36:17.160Z,15.30
2018-09-06T05:37:20.505Z,15.30
2018-09-06T05:38:23.907Z,15.30
2018-09-06T05:39:27.225Z,15.30
2018-09-06T05:40:30.582Z,15.40
2018-09-06T05:41:33.907Z,15.40
2018-09-06T05:42:37.228Z,15.40
2018-09-06T05:43:40.590Z,15.40
2018-09-06T05:44:43.907Z,15.40
2018-09-06T05:45:47.231Z,15.40
2018-09-06T05:46:50.607Z,15.40
2018-09-06T05:47:58.312Z,15.40
2018-09-06T05:49:01.663Z,15.40
2018-09-06T05:50:05.014Z,15.50
2018-09-06T05:51:08.354Z,15.50
2018-09-06T05:52:11.679Z,15.60
2018-09-06T05:53:15.008Z,15.60
2018-09-06T05:54:18.359Z,15.60
2018-09-06T05:55:21.894Z,15.60
2018-09-06T05:56:25.262Z,15.60
2018-09-06T05:57:28.754Z,15.70
2018-09-06T05:58:32.095Z,15.70
2018-09-06T05:59:35.536Z,15.80
2018-09-06T06:00:43.587Z,15.80
2018-09-06T06:01:46.906Z,15.90
2018-09-06T06:02:51.027Z,16.00
2018-09-06T06:03:54.346Z,16.00
2018-09-06T06:04:57.666Z,16.00
2018-09-06T06:06:01.060Z,16.00
2018-09-06T06:07:04.404Z,16.00
2018-09-06T06:08:18.897Z,16.00
2018-09-06T06:09:22.218Z,16.10
2018-09-06T06:10:25.540Z,16.10
2018-09-06T06:11:28.907Z,16.20
2018-09-06T06:12:32.239Z,16.20
2018-09-06T06:13:35.664Z,16.30
2018-09-06T06:14:39.110Z,16.30
2018-09-06T06:15:42.491Z,16.40
2018-09-06T06:16:45.823Z,16.40
2018-09-06T06:17:49.154Z,16.30
2018-09-06T06:18:52.499Z,16.40
2018-09-06T06:19:55.905Z,16.40
2018-09-06T06:20:59.239Z,16.40
2018-09-06T06:22:02.587Z,16.40
2018-09-06T06:23:05.920Z,16.50
2018-09-06T06:24:09.238Z,16.50
2018-09-06T06:25:12.575Z,16.60
2018-09-06T06:26:15.895Z,16.60
2018-09-06T06:27:19.255Z,16.60
2018-09-06T06:28:22.566Z,16.60
2018-09-06T06:29:26.238Z,16.60
2018-09-06T06:30:29.552Z,16.60
2018-09-06T06:31:32.883Z,16.70
2018-09-06T06:32:36.218Z,16.60
2018-09-06T06:33:39.903Z,16.70
2018-09-06T06:34:43.228Z,16.70
2018-09-06T06:35:46.550Z,16.70
2018-09-06T06:36:49.881Z,16.70
2018-09-06T06:37:53.210Z,16.80
2018-09-06T06:38:56.541Z,16.80
2018-09-06T06:39:59.911Z,16.80
2018-09-06T06:41:03.227Z,16.90
2018-09-06T06:42:06.555Z,17.00
2018-09-06T06:43:09.921Z,16.90
2018-09-06T06:44:13.234Z,16.90
2018-09-06T06:45:16.612Z,17.00
2018-09-06T06:46:19.940Z,17.00
2018-09-06T06:47:23.282Z,17.00
2018-09-06T06:48:26.631Z,17.10
2018-09-06T06:49:29.982Z,17.10
2018-09-06T06:50:33.293Z,17.10
2018-09-06T06:51:36.644Z,17.10
2018-09-06T06:52:39.960Z,17.10
2018-09-06T06:53:43.307Z,17.10
2018-09-06T06:54:46.650Z,17.10
2018-09-06T06:55:49.966Z,17.10
2018-09-06T06:56:53.283Z,17.10
2018-09-06T06:57:56.602Z,17.10
2018-09-06T06:58:59.922Z,17.20
2018-09-06T07:00:03.310Z,17.20
2018-09-06T07:01:06.636Z,17.30
2018-09-06T07:02:09.942Z,17.30
2018-09-06T07:03:14.350Z,17.30
2018-09-06T07:04:17.666Z,17.40
2018-09-06T07:05:21.255Z,17.40
2018-09-06T07:06:24.582Z,17.40
2018-09-06T07:07:27.907Z,17.50
2018-09-06T07:08:31.219Z,17.50
2018-09-06T07:09:34.546Z,17.60
2018-09-06T07:10:37.930Z,17.50
2018-09-06T07:11:41.278Z,17.60
2018-09-06T07:12:44.590Z,17.70
2018-09-06T07:13:47.938Z,17.70
2018-09-06T07:14:51.271Z,17.70
2018-09-06T07:15:54.627Z,17.70
2018-09-06T07:16:57.958Z,17.70
2018-09-06T07:18:01.360Z,17.70
2018-09-06T07:19:04.806Z,17.70
2018-09-06T07:20:08.174Z,17.70
2018-09-06T07:21:11.524Z,17.70
2018-09-06T07:22:14.837Z,17.70
2018-09-06T07:23:18.202Z,17.80
2018-09-06T07:24:21.516Z,17.80
2018-09-06T07:25:24.878Z,17.90
2018-09-06T07:26:28.191Z,18.00
2018-09-06T07:27:31.512Z,18.00
2018-09-06T07:28:34.838Z,18.00
2018-09-06T07:29:38.162Z,18.00
2018-09-06T07:30:41.684Z,18.10
2018-09-06T07:31:44.936Z,18.10
2018-09-06T07:32:48.249Z,18.10
2018-09-06T07:33:51.923Z,18.20
2018-09-06T07:34:55.248Z,18.20
2018-09-06T07:35:58.601Z,18.30
2018-09-06T07:37:01.930Z,18.40
2018-09-06T07:38:05.287Z,18.40
2018-09-06T07:39:09.542Z,18.50
2018-09-06T07:40:12.890Z,18.60
2018-09-06T07:41:16.253Z,18.60
2018-09-06T07:42:19.580Z,18.60
2018-09-06T07:43:22.886Z,18.60
2018-09-06T07:44:26.207Z,18.60
2018-09-06T07:45:29.534Z,18.80
2018-09-06T07:46:33.423Z,19.00
2018-09-06T07:47:36.746Z,19.20
2018-09-06T07:48:40.078Z,19.30
2018-09-06T07:49:43.444Z,19.40
2018-09-06T07:50:46.772Z,19.60
2018-09-06T07:51:50.144Z,19.80
2018-09-06T07:52:53.485Z,19.90
2018-09-06T07:53:57.323Z,20.20
2018-09-06T07:55:00.662Z,20.40
2018-09-06T07:56:04.150Z,20.50
2018-09-06T07:57:07.491Z,20.70
2018-09-06T07:58:10.882Z,20.90
2018-09-06T07:59:14.215Z,21.10
2018-09-06T08:00:17.534Z,21.20
2018-09-06T08:01:20.947Z,21.20
2018-09-06T08:02:24.304Z,21.20
2018-09-06T08:03:27.715Z,21.20
2018-09-06T08:04:31.035Z,21.30
2018-09-06T08:05:34.350Z,21.40
2018-09-06T08:06:37.740Z,21.50
2018-09-06T08:07:41.063Z,21.60
2018-09-06T08:08:44.391Z,21.70
2018-09-06T08:09:47.759Z,21.60
2018-09-06T08:10:51.083Z,21.50
2018-09-06T08:11:54.490Z,21.30
2018-09-06T08:12:57.803Z,21.30
2018-09-06T08:14:01.133Z,21.20
2018-09-06T08:15:04.573Z,21.20
2018-09-06T08:16:07.904Z,21.10
2018-09-06T08:17:11.242Z,21.00
2018-09-06T08:18:14.584Z,21.00
2018-09-06T08:19:17.943Z,21.00
2018-09-06T08:20:21.269Z,21.10
2018-09-06T08:21:24.613Z,21.10
2018-09-06T08:22:27.991Z,21.20
2018-09-06T08:23:31.326Z,21.20
2018-09-06T08:24:34.646Z,21.30
2018-09-06T08:25:37.979Z,21.30
2018-09-06T08:26:41.311Z,21.30
2018-09-06T08:27:44.675Z,21.20
2018-09-06T08:28:48.002Z,21.20
2018-09-06T08:29:51.350Z,21.20
2018-09-06T08:30:54.763Z,21.20
2018-09-06T08:31:58.043Z,21.30
2018-09-06T08:33:01.412Z,21.30
2018-09-06T08:34:04.735Z,21.30
2018-09-06T08:35:08.143Z,21.40
2018-09-06T08:36:11.466Z,21.40
2018-09-06T08:37:14.827Z,21.60
2018-09-06T08:38:18.202Z,21.80
2018-09-06T08:39:21.608Z,22.00
2018-09-06T08:40:24.948Z,22.10
2018-09-06T08:41:28.297Z,22.30
2018-09-06T08:42:31.702Z,22.40
2018-09-06T08:43:35.072Z,22.70
2018-09-06T08:44:38.414Z,23.00
2018-09-06T08:45:41.754Z,23.10
2018-09-06T08:46:45.104Z,23.30
2018-09-06T08:47:48.417Z,23.70
2018-09-06T08:48:52.449Z,23.80
2018-09-06T08:49:55.780Z,24.10
2018-09-06T08:50:59.154Z,24.40
2018-09-06T08:52:02.532Z,24.50
2018-09-06T08:53:05.895Z,24.70
2018-09-06T08:54:09.231Z,25.00
2018-09-06T08:55:12.566Z,25.10
2018-09-06T08:56:15.915Z,25.30
2018-09-06T08:57:19.254Z,25.50
2018-09-06T08:58:22.653Z,25.70
2018-09-06T08:59:26.030Z,25.70
2018-09-06T09:00:29.400Z,25.80
2018-09-06T09:01:38.023Z,26.20
2018-09-06T09:02:41.535Z,26.50
2018-09-06T09:03:44.766Z,27.00
2018-09-06T09:04:48.094Z,27.60
2018-09-06T09:05:58.005Z,28.00
2018-09-06T09:07:01.351Z,28.30
2018-09-06T09:08:04.965Z,28.60
2018-09-06T09:09:10.247Z,28.70
2018-09-06T09:10:13.605Z,28.90
2018-09-06T09:11:17.036Z,29.10
2018-09-06T09:12:20.425Z,29.40
2018-09-06T09:13:23.824Z,29.70
2018-09-06T09:14:27.173Z,29.60
2018-09-06T09:15:30.532Z,29.50
2018-09-06T09:16:33.938Z,29.90
2018-09-06T09:17:37.253Z,30.10
2018-09-06T09:18:40.567Z,30.30
2018-09-06T09:19:43.920Z,30.50
2018-09-06T09:20:47.243Z,30.60
2018-09-06T09:21:50.668Z,30.40
2018-09-06T09:22:53.962Z,30.00
2018-09-06T09:23:57.332Z,29.90
2018-09-06T09:25:00.724Z,30.00
2018-09-06T09:26:04.094Z,30.20
2018-09-06T09:27:07.491Z,30.20
2018-09-06T09:28:10.824Z,30.30
2018-09-06T09:29:14.148Z,30.30
2018-09-06T09:30:17.498Z,30.40
2018-09-06T09:31:20.859Z,30.30
2018-09-06T09:32:24.173Z,30.30
2018-09-06T09:33:27.571Z,30.20
2018-09-06T09:34:30.883Z,30.20
2018-09-06T09:35:34.238Z,30.60
2018-09-06T09:36:37.557Z,30.80
2018-09-06T09:37:40.907Z,30.60
2018-09-06T09:38:44.285Z,30.00
2018-09-06T09:39:47.667Z,30.10
2018-09-06T09:40:51.023Z,30.30
2018-09-06T09:41:54.347Z,30.30
2018-09-06T09:42:57.733Z,30.40
2018-09-06T09:44:01.054Z,30.60
2018-09-06T09:45:04.446Z,30.80
2018-09-06T09:48:13.729Z,30.90
2018-09-06T09:49:17.050Z,31.20
2018-09-06T09:51:22.878Z,31.30
2018-09-06T09:52:26.202Z,31.80
2018-09-06T09:53:29.597Z,32.00
2018-09-06T09:54:32.922Z,32.10
2018-09-06T11:52:21.203Z,25.80
2018-09-06T11:53:24.628Z,25.80
2018-09-06T11:54:28.098Z,25.70
2018-09-06T11:55:31.455Z,25.70
2018-09-06T11:56:34.804Z,25.60
2018-09-06T11:57:38.166Z,25.60
2018-09-06T11:58:41.519Z,25.60
2018-09-06T11:59:44.870Z,25.70
2018-09-06T12:00:48.287Z,25.70
2018-09-06T12:01:51.611Z,25.70
2018-09-06T12:02:54.945Z,25.80
2018-09-06T12:03:58.518Z,25.80
2018-09-06T12:05:01.866Z,25.80
2018-09-06T12:06:05.216Z,25.90
2018-09-06T12:07:08.587Z,25.90
2018-09-06T12:08:11.951Z,26.00
2018-09-06T12:09:15.290Z,25.90
2018-09-06T12:10:19.038Z,25.90
2018-09-06T12:11:22.432Z,26.00
2018-09-06T12:12:25.767Z,26.00
2018-09-06T12:13:29.106Z,26.00
2018-09-06T12:14:32.472Z,26.10
2018-09-06T12:15:35.814Z,26.20
2018-09-06T12:16:39.225Z,26.20
2018-09-06T12:17:42.571Z,26.20
2018-09-06T12:18:45.887Z,26.40
2018-09-06T12:19:49.230Z,26.40
2018-09-06T12:20:52.602Z,26.50
2018-09-06T12:21:55.961Z,26.60
2018-09-06T12:22:59.301Z,26.70
2018-09-06T12:24:02.645Z,26.70
2018-09-06T12:25:06.249Z,26.90
2018-09-06T12:26:09.641Z,27.00
2018-09-06T12:27:13.282Z,27.10
2018-09-06T12:28:16.634Z,27.30
2018-09-06T12:29:19.963Z,27.30
2018-09-06T12:30:23.667Z,27.30
2018-09-06T12:31:27.050Z,27.30
2018-09-06T12:32:30.432Z,27.30
2018-09-06T12:33:33.865Z,27.40
2018-09-06T12:34:37.299Z,27.40
2018-09-06T12:35:40.624Z,27.40
2018-09-06T12:36:50.506Z,27.50
2018-09-06T12:37:53.840Z,27.60
2018-09-06T12:38:57.208Z,27.70
2018-09-06T12:40:00.548Z,27.60
2018-09-06T12:41:03.915Z,27.50
2018-09-06T12:42:07.270Z,27.70
2018-09-06T12:43:10.602Z,27.80
2018-09-06T12:44:14.083Z,27.80
2018-09-06T12:45:17.454Z,27.70
2018-09-06T12:46:20.774Z,27.80
2018-09-06T12:47:24.130Z,27.80
2018-09-06T12:48:27.460Z,27.80
2018-09-06T12:49:30.837Z,27.80
2018-09-06T12:50:34.186Z,27.70
2018-09-06T12:51:37.514Z,27.60
2018-09-06T12:52:40.838Z,27.50
2018-09-06T12:53:44.222Z,27.50
2018-09-06T12:54:47.541Z,27.60
2018-09-06T12:55:50.877Z,27.60
2018-09-06T12:56:54.284Z,27.60
2018-09-06T12:57:57.601Z,27.60
2018-09-06T12:59:01.017Z,27.60
2018-09-06T13:00:04.473Z,27.60
2018-09-06T13:01:07.826Z,27.70
2018-09-06T13:02:11.147Z,27.80
2018-09-06T13:03:14.491Z,27.80
2018-09-06T13:04:17.852Z,27.80
2018-09-06T13:05:21.171Z,27.80
2018-09-06T13:06:24.493Z,28.00
2018-09-06T13:07:27.864Z,28.00
2018-09-06T13:08:31.186Z,28.00
2018-09-06T13:09:34.576Z,28.00
2018-09-06T13:10:37.887Z,28.00
2018-09-06T13:11:41.250Z,28.00
2018-09-06T13:12:44.644Z,28.00
2018-09-06T13:13:47.987Z,27.90
2018-09-06T13:14:51.351Z,27.80
2018-09-06T13:15:54.674Z,27.80
2018-09-06T13:16:58.010Z,27.80
2018-09-06T13:18:01.314Z,27.90
2018-09-06T13:19:04.827Z,27.90
2018-09-06T13:20:08.194Z,27.90
2018-09-06T13:21:11.546Z,27.90
2018-09-06T13:22:14.947Z,28.00
2018-09-06T13:23:18.292Z,27.90
2018-09-06T13:24:21.665Z,27.90
2018-09-06T13:25:25.068Z,27.90
2018-09-06T13:26:28.402Z,28.00
2018-09-06T13:27:31.762Z,27.90
2018-09-06T13:28:35.104Z,27.80
2018-09-06T13:29:38.450Z,27.60
2018-09-06T13:30:41.763Z,27.60
2018-09-06T13:31:45.086Z,27.50
2018-09-06T13:32:48.444Z,27.40
2018-09-06T13:33:51.783Z,27.40
2018-09-06T13:34:55.096Z,27.30
2018-09-06T13:35:58.452Z,27.20
2018-09-06T13:37:01.770Z,27.20
2018-09-06T13:38:05.098Z,27.10
2018-09-06T13:39:09.681Z,26.90
2018-09-06T13:40:19.565Z,26.90
2018-09-06T13:41:22.883Z,26.90
2018-09-06T13:42:26.202Z,26.80
2018-09-06T13:44:39.247Z,26.80
2018-09-06T13:45:42.562Z,26.70
2018-09-06T13:46:45.873Z,26.70
2018-09-06T13:47:49.224Z,26.60
2018-09-06T13:48:52.890Z,26.50
2018-09-06T13:49:56.229Z,26.50
2018-09-06T13:50:59.578Z,26.40
2018-09-06T13:52:03.006Z,26.40
2018-09-06T13:53:06.274Z,26.40
2018-09-06T13:54:09.606Z,26.40
2018-09-06T13:55:12.931Z,26.40
2018-09-06T13:56:16.268Z,26.40
2018-09-06T13:57:19.627Z,26.40
2018-09-06T13:58:22.961Z,26.40
2018-09-06T13:59:26.294Z,26.30
2018-09-06T14:00:29.615Z,26.30
2018-09-06T14:01:33.032Z,26.30
2018-09-06T14:02:36.387Z,26.40
2018-09-06T14:03:39.704Z,26.30
2018-09-06T14:04:43.027Z,26.30
2018-09-06T14:05:46.370Z,26.40
2018-09-06T14:06:49.727Z,26.30
2018-09-06T14:07:53.047Z,26.40
2018-09-06T14:08:56.403Z,26.40
2018-09-06T14:09:59.752Z,26.40
2018-09-06T14:11:03.073Z,26.40
2018-09-06T14:12:07.006Z,26.30
2018-09-06T14:13:10.326Z,26.30
2018-09-06T14:14:13.659Z,26.30
2018-09-06T14:15:16.979Z,26.30
2018-09-06T14:16:20.367Z,26.20
2018-09-06T14:17:23.679Z,26.20
2018-09-06T14:18:27.170Z,26.20
2018-09-06T14:19:30.547Z,26.20
2018-09-06T14:20:33.863Z,26.20
2018-09-06T14:21:37.178Z,26.10
2018-09-06T14:22:40.528Z,26.00
2018-09-06T14:23:43.865Z,25.90
2018-09-06T14:24:47.167Z,25.80
2018-09-06T14:25:50.498Z,25.60
2018-09-06T14:26:53.807Z,25.50
2018-09-06T14:27:57.119Z,25.30
2018-09-06T14:29:00.471Z,25.20
2018-09-06T14:30:03.794Z,25.10
2018-09-06T14:31:07.099Z,25.00
2018-09-06T14:32:10.464Z,25.00
2018-09-06T14:33:13.879Z,24.80
2018-09-06T14:34:17.187Z,24.60
2018-09-06T14:35:20.503Z,24.50
2018-09-06T14:36:23.911Z,24.40
2018-09-06T14:37:27.227Z,24.20
2018-09-06T14:38:30.638Z,24.00
2018-09-06T14:39:33.914Z,23.90
2018-09-06T14:40:37.223Z,23.80
2018-09-06T14:41:40.597Z,23.60
2018-09-06T14:42:43.918Z,23.50
2018-09-06T14:43:47.305Z,23.40
2018-09-06T14:44:50.662Z,23.30
2018-09-06T14:45:54.012Z,23.20
2018-09-06T14:46:57.334Z,23.00
2018-09-06T14:48:00.702Z,22.90
2018-09-06T14:49:04.076Z,22.80
2018-09-06T14:50:07.475Z,22.70
2018-09-06T14:51:10.782Z,22.70
2018-09-06T14:52:14.106Z,22.60
2018-09-06T14:53:17.420Z,22.60
2018-09-06T14:54:20.745Z,22.50
2018-09-06T14:55:24.170Z,22.40
2018-09-06T14:56:27.519Z,22.40
2018-09-06T14:57:30.904Z,22.40
2018-09-06T14:58:34.218Z,22.40
2018-09-06T14:59:37.526Z,22.40
2018-09-06T15:00:40.863Z,22.40
2018-09-06T15:01:45.891Z,22.30
2018-09-06T15:02:49.234Z,22.30
2018-09-06T15:03:52.579Z,22.20
2018-09-06T15:04:55.899Z,22.20
2018-09-06T15:05:59.262Z,22.10
2018-09-06T15:07:02.584Z,22.00
2018-09-06T15:08:05.956Z,22.00
2018-09-06T15:09:09.535Z,22.00
2018-09-06T15:10:12.864Z,21.90
2018-09-06T15:11:16.223Z,21.80
2018-09-06T15:12:19.607Z,21.70
2018-09-06T15:13:22.929Z,21.70
2018-09-06T15:14:26.263Z,21.60
2018-09-06T15:15:29.574Z,21.50
2018-09-06T15:16:32.969Z,21.40
2018-09-06T15:17:36.419Z,21.40
2018-09-06T15:18:39.748Z,21.30
2018-09-06T15:19:43.067Z,21.10
2018-09-06T15:20:46.407Z,21.00
2018-09-06T15:21:49.758Z,21.00
2018-09-06T15:22:53.081Z,20.90
2018-09-06T15:23:56.402Z,20.80
2018-09-06T15:24:59.711Z,20.70
2018-09-06T15:26:03.047Z,20.60
2018-09-06T15:27:06.394Z,20.50
2018-09-06T15:28:09.720Z,20.50
2018-09-06T15:29:13.064Z,20.40
2018-09-06T15:30:16.376Z,20.40
2018-09-06T15:31:19.710Z,20.30
2018-09-06T15:32:23.069Z,20.30
2018-09-06T15:33:26.442Z,20.30
2018-09-06T15:34:29.746Z,20.20
2018-09-06T15:35:33.039Z,20.20
2018-09-06T15:36:36.379Z,20.20
2018-09-06T15:37:39.718Z,20.20
2018-09-06T15:38:43.046Z,20.20
2018-09-06T15:39:46.390Z,20.30
2018-09-06T15:40:49.697Z,20.30